Bydgoszcz, Poland
Current Conditions -  °F | °C
As of 9:00 AM on Monday 24 Nov 2014 (Local Time) from EPBY Reporting Station
Few Clouds Few Clouds  
Wind Chill: 30°   Ceiling: Unl
Heat Index: 34°   Visibility: 6mi
Dew Point: 30°   Wind: 5mph
Humidity: 87%   Direction: 140°SE
Pressure: 30.27"   Gusts: NA
Location:  53.12°N, 17.99°E
Report Text: EPBY 240700Z 14004KT 100V170 9999 FEW008 01/M01 Q1025
Loading
Personal Weather Stations






























Interactive Weather Map New forecast layout! Learn more

10-Day Weather Forecast

Advertisements
Track Severe Weather on mobile